sensor_id;sensor_type;location;lat;lon;timestamp;P1;durP1;ratioP1;P2;durP2;ratioP2
37067;SDS011;22982;42.848;25.468;2023-08-30T00:03:04;14.25;;;7.53;;
37067;SDS011;22982;42.848;25.468;2023-08-30T00:08:08;9.77;;;7.95;;
37067;SDS011;22982;42.848;25.468;2023-08-30T00:13:11;12.85;;;7.32;;
37067;SDS011;22982;42.848;25.468;2023-08-30T00:18:15;8.88;;;7.05;;
37067;SDS011;22982;42.848;25.468;2023-08-30T00:23:17;14.75;;;8.18;;
37067;SDS011;22982;42.848;25.468;2023-08-30T00:28:19;12.07;;;8.05;;
37067;SDS011;22982;42.848;25.468;2023-08-30T00:33:23;15.48;;;8.43;;
37067;SDS011;22982;42.848;25.468;2023-08-30T00:38:28;14.55;;;8.13;;
37067;SDS011;22982;42.848;25.468;2023-08-30T00:43:31;16.17;;;8.23;;
37067;SDS011;22982;42.848;25.468;2023-08-30T00:48:34;12.38;;;7.57;;
37067;SDS011;22982;42.848;25.468;2023-08-30T00:53:37;13.00;;;8.75;;
37067;SDS011;22982;42.848;25.468;2023-08-30T00:58:40;11.15;;;8.35;;
37067;SDS011;22982;42.848;25.468;2023-08-30T01:03:43;14.75;;;8.60;;
37067;SDS011;22982;42.848;25.468;2023-08-30T01:08:47;12.30;;;9.55;;
37067;SDS011;22982;42.848;25.468;2023-08-30T01:13:53;13.48;;;8.40;;
37067;SDS011;22982;42.848;25.468;2023-08-30T01:19:03;13.82;;;8.77;;
37067;SDS011;22982;42.848;25.468;2023-08-30T01:24:21;11.00;;;8.30;;
37067;SDS011;22982;42.848;25.468;2023-08-30T01:29:31;13.43;;;8.13;;
37067;SDS011;22982;42.848;25.468;2023-08-30T01:34:39;14.85;;;8.60;;
37067;SDS011;22982;42.848;25.468;2023-08-30T01:39:43;17.58;;;8.73;;
37067;SDS011;22982;42.848;25.468;2023-08-30T01:44:46;11.65;;;8.70;;
37067;SDS011;22982;42.848;25.468;2023-08-30T01:49:49;14.45;;;9.57;;
37067;SDS011;22982;42.848;25.468;2023-08-30T01:54:52;14.45;;;9.32;;
37067;SDS011;22982;42.848;25.468;2023-08-30T01:59:55;17.52;;;9.25;;
37067;SDS011;22982;42.848;25.468;2023-08-30T02:04:57;13.75;;;9.27;;
37067;SDS011;22982;42.848;25.468;2023-08-30T02:10:02;13.23;;;9.90;;
37067;SDS011;22982;42.848;25.468;2023-08-30T02:15:09;14.93;;;9.23;;
37067;SDS011;22982;42.848;25.468;2023-08-30T02:20:14;12.60;;;9.55;;
37067;SDS011;22982;42.848;25.468;2023-08-30T02:25:16;12.70;;;9.98;;
37067;SDS011;22982;42.848;25.468;2023-08-30T02:30:19;14.02;;;9.77;;
37067;SDS011;22982;42.848;25.468;2023-08-30T02:35:22;18.80;;;10.40;;
37067;SDS011;22982;42.848;25.468;2023-08-30T02:40:24;15.15;;;10.40;;
37067;SDS011;22982;42.848;25.468;2023-08-30T02:45:27;17.15;;;10.27;;
37067;SDS011;22982;42.848;25.468;2023-08-30T02:50:29;17.98;;;9.57;;
37067;SDS011;22982;42.848;25.468;2023-08-30T02:55:32;15.88;;;10.63;;
37067;SDS011;22982;42.848;25.468;2023-08-30T03:00:35;14.55;;;11.05;;
37067;SDS011;22982;42.848;25.468;2023-08-30T03:05:38;15.20;;;9.68;;
37067;SDS011;22982;42.848;25.468;2023-08-30T03:10:43;16.30;;;12.57;;
37067;SDS011;22982;42.848;25.468;2023-08-30T03:15:46;18.05;;;10.45;;
37067;SDS011;22982;42.848;25.468;2023-08-30T03:20:59;17.13;;;11.10;;
37067;SDS011;22982;42.848;25.468;2023-08-30T03:26:12;16.40;;;12.07;;
37067;SDS011;22982;42.848;25.468;2023-08-30T03:31:19;20.95;;;11.57;;
37067;SDS011;22982;42.848;25.468;2023-08-30T03:36:24;14.48;;;11.10;;
37067;SDS011;22982;42.848;25.468;2023-08-30T03:41:27;15.30;;;10.93;;
37067;SDS011;22982;42.848;25.468;2023-08-30T03:46:30;17.38;;;11.18;;
37067;SDS011;22982;42.848;25.468;2023-08-30T03:51:33;16.45;;;12.68;;
37067;SDS011;22982;42.848;25.468;2023-08-30T03:56:36;14.98;;;12.55;;
37067;SDS011;22982;42.848;25.468;2023-08-30T04:01:39;14.35;;;11.98;;
37067;SDS011;22982;42.848;25.468;2023-08-30T04:06:42;17.40;;;13.40;;
37067;SDS011;22982;42.848;25.468;2023-08-30T04:11:44;22.40;;;12.25;;
37067;SDS011;22982;42.848;25.468;2023-08-30T04:16:47;16.33;;;12.15;;
37067;SDS011;22982;42.848;25.468;2023-08-30T04:21:49;21.42;;;13.82;;
37067;SDS011;22982;42.848;25.468;2023-08-30T04:26:51;14.85;;;11.40;;
37067;SDS011;22982;42.848;25.468;2023-08-30T04:31:56;16.33;;;11.38;;
37067;SDS011;22982;42.848;25.468;2023-08-30T04:36:58;32.15;;;13.18;;
37067;SDS011;22982;42.848;25.468;2023-08-30T04:42:00;17.88;;;12.40;;
37067;SDS011;22982;42.848;25.468;2023-08-30T04:47:05;35.08;;;17.10;;
37067;SDS011;22982;42.848;25.468;2023-08-30T04:52:08;20.98;;;11.55;;
37067;SDS011;22982;42.848;25.468;2023-08-30T04:57:11;27.63;;;13.27;;
37067;SDS011;22982;42.848;25.468;2023-08-30T05:02:18;33.83;;;16.48;;
37067;SDS011;22982;42.848;25.468;2023-08-30T05:07:30;19.33;;;12.20;;
37067;SDS011;22982;42.848;25.468;2023-08-30T05:12:34;15.73;;;11.90;;
37067;SDS011;22982;42.848;25.468;2023-08-30T05:17:37;25.35;;;14.80;;
37067;SDS011;22982;42.848;25.468;2023-08-30T05:22:39;22.17;;;13.77;;
37067;SDS011;22982;42.848;25.468;2023-08-30T05:27:42;15.63;;;12.48;;
37067;SDS011;22982;42.848;25.468;2023-08-30T05:32:45;14.00;;;11.35;;
37067;SDS011;22982;42.848;25.468;2023-08-30T05:38:10;12.57;;;9.63;;
37067;SDS011;22982;42.848;25.468;2023-08-30T05:43:20;14.98;;;10.07;;
37067;SDS011;22982;42.848;25.468;2023-08-30T05:48:24;13.15;;;8.02;;
37067;SDS011;22982;42.848;25.468;2023-08-30T05:53:26;9.80;;;7.25;;
37067;SDS011;22982;42.848;25.468;2023-08-30T05:58:30;11.23;;;7.28;;
37067;SDS011;22982;42.848;25.468;2023-08-30T06:03:32;11.65;;;6.97;;
37067;SDS011;22982;42.848;25.468;2023-08-30T06:08:36;14.88;;;7.50;;
37067;SDS011;22982;42.848;25.468;2023-08-30T06:13:38;12.88;;;7.22;;
37067;SDS011;22982;42.848;25.468;2023-08-30T06:18:42;11.45;;;6.63;;
37067;SDS011;22982;42.848;25.468;2023-08-30T06:23:44;7.05;;;6.40;;
37067;SDS011;22982;42.848;25.468;2023-08-30T06:28:47;9.07;;;6.25;;
37067;SDS011;22982;42.848;25.468;2023-08-30T06:34:05;8.60;;;6.10;;
37067;SDS011;22982;42.848;25.468;2023-08-30T06:39:08;9.15;;;6.05;;
37067;SDS011;22982;42.848;25.468;2023-08-30T06:44:11;8.60;;;5.88;;
37067;SDS011;22982;42.848;25.468;2023-08-30T06:49:13;11.50;;;6.00;;
37067;SDS011;22982;42.848;25.468;2023-08-30T06:54:16;7.47;;;5.45;;
37067;SDS011;22982;42.848;25.468;2023-08-30T06:59:18;8.60;;;5.60;;
37067;SDS011;22982;42.848;25.468;2023-08-30T07:04:21;7.80;;;5.55;;
37067;SDS011;22982;42.848;25.468;2023-08-30T07:09:24;10.10;;;5.95;;
37067;SDS011;22982;42.848;25.468;2023-08-30T07:14:30;7.13;;;5.78;;
37067;SDS011;22982;42.848;25.468;2023-08-30T07:19:33;9.10;;;6.10;;
37067;SDS011;22982;42.848;25.468;2023-08-30T07:24:36;12.60;;;5.72;;
37067;SDS011;22982;42.848;25.468;2023-08-30T07:29:39;8.75;;;5.95;;
37067;SDS011;22982;42.848;25.468;2023-08-30T07:34:42;9.48;;;6.00;;
37067;SDS011;22982;42.848;25.468;2023-08-30T07:39:46;6.35;;;5.55;;
37067;SDS011;22982;42.848;25.468;2023-08-30T07:44:48;9.80;;;6.18;;
37067;SDS011;22982;42.848;25.468;2023-08-30T07:49:51;8.55;;;5.70;;
37067;SDS011;22982;42.848;25.468;2023-08-30T07:54:54;11.07;;;6.22;;
37067;SDS011;22982;42.848;25.468;2023-08-30T07:59:57;8.93;;;6.68;;
37067;SDS011;22982;42.848;25.468;2023-08-30T08:04:59;8.70;;;6.65;;
37067;SDS011;22982;42.848;25.468;2023-08-30T08:10:02;9.93;;;6.97;;
37067;SDS011;22982;42.848;25.468;2023-08-30T08:15:05;9.95;;;6.88;;
37067;SDS011;22982;42.848;25.468;2023-08-30T08:20:08;9.40;;;7.03;;
37067;SDS011;22982;42.848;25.468;2023-08-30T08:25:11;11.88;;;6.47;;
37067;SDS011;22982;42.848;25.468;2023-08-30T08:30:14;9.65;;;6.95;;
37067;SDS011;22982;42.848;25.468;2023-08-30T08:35:16;9.40;;;7.38;;
37067;SDS011;22982;42.848;25.468;2023-08-30T08:40:19;8.50;;;7.03;;
37067;SDS011;22982;42.848;25.468;2023-08-30T08:45:41;11.13;;;6.70;;
37067;SDS011;22982;42.848;25.468;2023-08-30T08:50:51;11.05;;;7.38;;
37067;SDS011;22982;42.848;25.468;2023-08-30T08:55:54;9.90;;;6.82;;
37067;SDS011;22982;42.848;25.468;2023-08-30T09:01:00;10.43;;;7.10;;
37067;SDS011;22982;42.848;25.468;2023-08-30T09:06:03;13.90;;;7.70;;
37067;SDS011;22982;42.848;25.468;2023-08-30T09:11:06;10.95;;;7.70;;
37067;SDS011;22982;42.848;25.468;2023-08-30T09:16:12;9.90;;;7.57;;
37067;SDS011;22982;42.848;25.468;2023-08-30T09:21:17;12.23;;;8.00;;
37067;SDS011;22982;42.848;25.468;2023-08-30T09:26:19;9.32;;;7.28;;
37067;SDS011;22982;42.848;25.468;2023-08-30T09:31:23;15.57;;;7.60;;
37067;SDS011;22982;42.848;25.468;2023-08-30T09:36:25;15.13;;;7.78;;
37067;SDS011;22982;42.848;25.468;2023-08-30T09:41:29;13.85;;;7.30;;
37067;SDS011;22982;42.848;25.468;2023-08-30T09:46:39;10.93;;;6.90;;
37067;SDS011;22982;42.848;25.468;2023-08-30T09:51:52;15.65;;;7.47;;
37067;SDS011;22982;42.848;25.468;2023-08-30T09:56:57;14.05;;;7.20;;
37067;SDS011;22982;42.848;25.468;2023-08-30T10:02:02;9.75;;;6.53;;
37067;SDS011;22982;42.848;25.468;2023-08-30T10:07:07;9.90;;;6.85;;
37067;SDS011;22982;42.848;25.468;2023-08-30T10:12:10;10.82;;;7.28;;
37067;SDS011;22982;42.848;25.468;2023-08-30T10:17:14;13.88;;;7.72;;
37067;SDS011;22982;42.848;25.468;2023-08-30T10:22:20;9.48;;;7.28;;
37067;SDS011;22982;42.848;25.468;2023-08-30T10:27:24;9.57;;;7.03;;
37067;SDS011;22982;42.848;25.468;2023-08-30T10:32:30;12.27;;;7.15;;
37067;SDS011;22982;42.848;25.468;2023-08-30T10:37:33;11.77;;;7.75;;
37067;SDS011;22982;42.848;25.468;2023-08-30T10:42:38;10.70;;;6.85;;
37067;SDS011;22982;42.848;25.468;2023-08-30T10:47:41;10.82;;;7.45;;
37067;SDS011;22982;42.848;25.468;2023-08-30T10:52:44;10.38;;;7.22;;
37067;SDS011;22982;42.848;25.468;2023-08-30T10:58:03;20.10;;;7.05;;
37067;SDS011;22982;42.848;25.468;2023-08-30T11:03:10;10.10;;;7.40;;
37067;SDS011;22982;42.848;25.468;2023-08-30T11:08:14;8.75;;;7.07;;
37067;SDS011;22982;42.848;25.468;2023-08-30T11:13:18;9.02;;;6.88;;
37067;SDS011;22982;42.848;25.468;2023-08-30T11:18:23;12.35;;;7.18;;
37067;SDS011;22982;42.848;25.468;2023-08-30T11:23:25;7.18;;;6.57;;
37067;SDS011;22982;42.848;25.468;2023-08-30T11:28:28;10.77;;;6.68;;
37067;SDS011;22982;42.848;25.468;2023-08-30T11:33:31;9.40;;;6.65;;
37067;SDS011;22982;42.848;25.468;2023-08-30T11:38:33;11.57;;;6.72;;
37067;SDS011;22982;42.848;25.468;2023-08-30T11:43:36;7.63;;;6.20;;
37067;SDS011;22982;42.848;25.468;2023-08-30T11:48:40;12.52;;;7.28;;
37067;SDS011;22982;42.848;25.468;2023-08-30T11:53:43;9.52;;;6.95;;
37067;SDS011;22982;42.848;25.468;2023-08-30T11:58:47;10.55;;;7.03;;
37067;SDS011;22982;42.848;25.468;2023-08-30T12:03:49;10.23;;;7.22;;
37067;SDS011;22982;42.848;25.468;2023-08-30T12:08:57;11.07;;;6.35;;
37067;SDS011;22982;42.848;25.468;2023-08-30T12:14:03;10.55;;;7.25;;
37067;SDS011;22982;42.848;25.468;2023-08-30T12:19:10;12.13;;;6.80;;
37067;SDS011;22982;42.848;25.468;2023-08-30T12:24:14;10.65;;;6.95;;
37067;SDS011;22982;42.848;25.468;2023-08-30T12:29:17;9.85;;;6.60;;
37067;SDS011;22982;42.848;25.468;2023-08-30T12:34:20;10.98;;;8.13;;
37067;SDS011;22982;42.848;25.468;2023-08-30T12:39:22;8.02;;;6.57;;
37067;SDS011;22982;42.848;25.468;2023-08-30T12:44:25;7.57;;;6.78;;
37067;SDS011;22982;42.848;25.468;2023-08-30T12:49:28;13.05;;;6.38;;
37067;SDS011;22982;42.848;25.468;2023-08-30T12:54:31;7.55;;;6.28;;
37067;SDS011;22982;42.848;25.468;2023-08-30T12:59:33;11.80;;;6.22;;
37067;SDS011;22982;42.848;25.468;2023-08-30T13:04:36;11.60;;;6.78;;
37067;SDS011;22982;42.848;25.468;2023-08-30T13:09:39;6.28;;;5.68;;
37067;SDS011;22982;42.848;25.468;2023-08-30T13:14:41;10.85;;;6.50;;
37067;SDS011;22982;42.848;25.468;2023-08-30T13:19:44;8.57;;;6.53;;
37067;SDS011;22982;42.848;25.468;2023-08-30T13:24:47;10.43;;;6.60;;
37067;SDS011;22982;42.848;25.468;2023-08-30T13:29:49;11.95;;;5.97;;
37067;SDS011;22982;42.848;25.468;2023-08-30T13:34:52;8.90;;;6.35;;
37067;SDS011;22982;42.848;25.468;2023-08-30T13:39:54;15.63;;;7.13;;
37067;SDS011;22982;42.848;25.468;2023-08-30T13:44:58;9.25;;;6.40;;
37067;SDS011;22982;42.848;25.468;2023-08-30T13:50:00;11.60;;;6.97;;
37067;SDS011;22982;42.848;25.468;2023-08-30T13:55:03;13.15;;;8.07;;
37067;SDS011;22982;42.848;25.468;2023-08-30T14:00:07;15.73;;;7.95;;
37067;SDS011;22982;42.848;25.468;2023-08-30T14:05:12;13.13;;;8.52;;
37067;SDS011;22982;42.848;25.468;2023-08-30T14:10:14;11.00;;;7.53;;
37067;SDS011;22982;42.848;25.468;2023-08-30T14:15:22;13.00;;;8.23;;
37067;SDS011;22982;42.848;25.468;2023-08-30T14:20:25;12.20;;;8.23;;
37067;SDS011;22982;42.848;25.468;2023-08-30T14:25:27;9.98;;;7.93;;
37067;SDS011;22982;42.848;25.468;2023-08-30T14:30:30;10.38;;;8.10;;
37067;SDS011;22982;42.848;25.468;2023-08-30T14:35:33;11.50;;;7.45;;
37067;SDS011;22982;42.848;25.468;2023-08-30T14:40:35;11.25;;;8.40;;
37067;SDS011;22982;42.848;25.468;2023-08-30T14:45:41;9.82;;;7.38;;
37067;SDS011;22982;42.848;25.468;2023-08-30T14:50:49;11.43;;;7.15;;
37067;SDS011;22982;42.848;25.468;2023-08-30T14:55:54;16.33;;;7.80;;
37067;SDS011;22982;42.848;25.468;2023-08-30T15:00:57;10.80;;;7.38;;
37067;SDS011;22982;42.848;25.468;2023-08-30T15:06:01;15.20;;;8.73;;
37067;SDS011;22982;42.848;25.468;2023-08-30T15:11:03;10.60;;;7.90;;
37067;SDS011;22982;42.848;25.468;2023-08-30T15:16:06;9.13;;;7.60;;
37067;SDS011;22982;42.848;25.468;2023-08-30T15:21:09;10.20;;;8.05;;
37067;SDS011;22982;42.848;25.468;2023-08-30T15:26:11;9.70;;;6.53;;
37067;SDS011;22982;42.848;25.468;2023-08-30T15:31:18;8.27;;;7.40;;
37067;SDS011;22982;42.848;25.468;2023-08-30T15:36:20;12.20;;;7.43;;
37067;SDS011;22982;42.848;25.468;2023-08-30T15:41:24;13.18;;;8.27;;
37067;SDS011;22982;42.848;25.468;2023-08-30T15:46:26;10.93;;;7.35;;
37067;SDS011;22982;42.848;25.468;2023-08-30T15:51:30;12.55;;;7.38;;
37067;SDS011;22982;42.848;25.468;2023-08-30T15:56:33;9.90;;;8.52;;
37067;SDS011;22982;42.848;25.468;2023-08-30T16:01:36;11.57;;;7.43;;
37067;SDS011;22982;42.848;25.468;2023-08-30T16:06:40;11.73;;;6.85;;
37067;SDS011;22982;42.848;25.468;2023-08-30T16:11:44;16.13;;;8.48;;
37067;SDS011;22982;42.848;25.468;2023-08-30T16:16:47;10.70;;;7.88;;
37067;SDS011;22982;42.848;25.468;2023-08-30T16:21:50;11.07;;;7.22;;
37067;SDS011;22982;42.848;25.468;2023-08-30T16:26:55;9.05;;;7.43;;
37067;SDS011;22982;42.848;25.468;2023-08-30T16:31:59;10.63;;;7.43;;
37067;SDS011;22982;42.848;25.468;2023-08-30T16:37:01;11.02;;;7.43;;
37067;SDS011;22982;42.848;25.468;2023-08-30T16:42:04;10.75;;;7.95;;
37067;SDS011;22982;42.848;25.468;2023-08-30T17:06:30;25.92;;;20.23;;
37067;SDS011;22982;42.848;25.468;2023-08-30T17:11:35;31.80;;;18.52;;
37067;SDS011;22982;42.848;25.468;2023-08-30T17:16:40;36.65;;;20.48;;
37067;SDS011;22982;42.848;25.468;2023-08-30T17:21:43;31.67;;;22.75;;
37067;SDS011;22982;42.848;25.468;2023-08-30T17:26:45;37.08;;;24.10;;
37067;SDS011;22982;42.848;25.468;2023-08-30T17:31:48;33.63;;;23.23;;
37067;SDS011;22982;42.848;25.468;2023-08-30T17:36:51;34.83;;;21.08;;
37067;SDS011;22982;42.848;25.468;2023-08-30T17:41:59;30.83;;;23.45;;
37067;SDS011;22982;42.848;25.468;2023-08-30T17:47:02;32.38;;;23.48;;
37067;SDS011;22982;42.848;25.468;2023-08-30T17:52:05;32.40;;;23.52;;
37067;SDS011;22982;42.848;25.468;2023-08-30T17:57:09;33.40;;;23.65;;
37067;SDS011;22982;42.848;25.468;2023-08-30T18:02:12;32.17;;;22.88;;
37067;SDS011;22982;42.848;25.468;2023-08-30T18:07:15;25.48;;;21.08;;
37067;SDS011;22982;42.848;25.468;2023-08-30T18:12:17;33.20;;;22.90;;
37067;SDS011;22982;42.848;25.468;2023-08-30T18:17:21;32.40;;;23.77;;
37067;SDS011;22982;42.848;25.468;2023-08-30T18:22:23;33.22;;;23.65;;
37067;SDS011;22982;42.848;25.468;2023-08-30T18:27:27;29.02;;;23.45;;
37067;SDS011;22982;42.848;25.468;2023-08-30T18:32:29;26.92;;;21.33;;
37067;SDS011;22982;42.848;25.468;2023-08-30T18:37:32;31.80;;;23.10;;
37067;SDS011;22982;42.848;25.468;2023-08-30T18:42:34;28.10;;;22.05;;
37067;SDS011;22982;42.848;25.468;2023-08-30T18:47:37;38.05;;;28.48;;
37067;SDS011;22982;42.848;25.468;2023-08-30T18:52:40;48.92;;;27.17;;
37067;SDS011;22982;42.848;25.468;2023-08-30T18:57:42;30.90;;;25.40;;
37067;SDS011;22982;42.848;25.468;2023-08-30T19:02:45;30.98;;;26.00;;
37067;SDS011;22982;42.848;25.468;2023-08-30T19:07:47;32.75;;;27.08;;
37067;SDS011;22982;42.848;25.468;2023-08-30T19:12:49;29.42;;;23.50;;
37067;SDS011;22982;42.848;25.468;2023-08-30T19:17:54;34.97;;;25.55;;
37067;SDS011;22982;42.848;25.468;2023-08-30T19:22:56;32.97;;;25.52;;
37067;SDS011;22982;42.848;25.468;2023-08-30T19:27:59;27.50;;;22.85;;
37067;SDS011;22982;42.848;25.468;2023-08-30T19:33:01;28.95;;;23.25;;
37067;SDS011;22982;42.848;25.468;2023-08-30T19:38:04;26.50;;;22.63;;
37067;SDS011;22982;42.848;25.468;2023-08-30T19:43:06;29.60;;;23.25;;
37067;SDS011;22982;42.848;25.468;2023-08-30T19:48:09;30.38;;;26.00;;
37067;SDS011;22982;42.848;25.468;2023-08-30T19:53:12;30.02;;;25.38;;
37067;SDS011;22982;42.848;25.468;2023-08-30T19:58:14;31.95;;;25.80;;
37067;SDS011;22982;42.848;25.468;2023-08-30T20:03:17;30.00;;;26.00;;
37067;SDS011;22982;42.848;25.468;2023-08-30T20:08:22;29.90;;;26.02;;
37067;SDS011;22982;42.848;25.468;2023-08-30T20:13:24;31.27;;;26.33;;
37067;SDS011;22982;42.848;25.468;2023-08-30T20:18:26;31.88;;;25.83;;
37067;SDS011;22982;42.848;25.468;2023-08-30T20:23:32;28.55;;;24.02;;
37067;SDS011;22982;42.848;25.468;2023-08-30T20:28:34;34.92;;;26.02;;
37067;SDS011;22982;42.848;25.468;2023-08-30T20:33:37;30.15;;;24.13;;
37067;SDS011;22982;42.848;25.468;2023-08-30T20:38:39;28.38;;;22.88;;
37067;SDS011;22982;42.848;25.468;2023-08-30T20:43:42;37.08;;;26.63;;
37067;SDS011;22982;42.848;25.468;2023-08-30T20:48:45;47.05;;;27.15;;
37067;SDS011;22982;42.848;25.468;2023-08-30T20:53:47;34.47;;;27.10;;
37067;SDS011;22982;42.848;25.468;2023-08-30T20:58:51;36.13;;;26.73;;
37067;SDS011;22982;42.848;25.468;2023-08-30T21:03:56;29.17;;;24.10;;
37067;SDS011;22982;42.848;25.468;2023-08-30T21:09:02;27.65;;;23.70;;
37067;SDS011;22982;42.848;25.468;2023-08-30T21:14:05;33.13;;;25.88;;
37067;SDS011;22982;42.848;25.468;2023-08-30T21:19:07;31.80;;;24.38;;
37067;SDS011;22982;42.848;25.468;2023-08-30T21:24:10;26.25;;;21.15;;
37067;SDS011;22982;42.848;25.468;2023-08-30T21:29:13;34.13;;;26.25;;
37067;SDS011;22982;42.848;25.468;2023-08-30T21:34:16;32.58;;;25.05;;
37067;SDS011;22982;42.848;25.468;2023-08-30T21:39:19;36.22;;;27.73;;
37067;SDS011;22982;42.848;25.468;2023-08-30T21:44:21;38.40;;;25.60;;
37067;SDS011;22982;42.848;25.468;2023-08-30T21:49:24;31.98;;;24.88;;
37067;SDS011;22982;42.848;25.468;2023-08-30T21:54:26;32.63;;;27.63;;
37067;SDS011;22982;42.848;25.468;2023-08-30T21:59:28;31.63;;;24.92;;
37067;SDS011;22982;42.848;25.468;2023-08-30T22:04:31;30.73;;;22.27;;
37067;SDS011;22982;42.848;25.468;2023-08-30T22:09:35;30.58;;;22.48;;
37067;SDS011;22982;42.848;25.468;2023-08-30T22:14:37;27.08;;;21.33;;
37067;SDS011;22982;42.848;25.468;2023-08-30T22:19:49;27.40;;;22.42;;
37067;SDS011;22982;42.848;25.468;2023-08-30T22:24:55;29.48;;;21.88;;
37067;SDS011;22982;42.848;25.468;2023-08-30T22:29:59;33.42;;;24.33;;
37067;SDS011;22982;42.848;25.468;2023-08-30T22:35:04;30.30;;;23.23;;
37067;SDS011;22982;42.848;25.468;2023-08-30T22:40:07;34.42;;;25.48;;
37067;SDS011;22982;42.848;25.468;2023-08-30T22:45:11;32.88;;;24.23;;
37067;SDS011;22982;42.848;25.468;2023-08-30T22:50:13;32.78;;;23.10;;
37067;SDS011;22982;42.848;25.468;2023-08-30T22:55:17;27.63;;;22.95;;
37067;SDS011;22982;42.848;25.468;2023-08-30T23:00:19;30.25;;;21.88;;
37067;SDS011;22982;42.848;25.468;2023-08-30T23:05:22;33.28;;;23.15;;
37067;SDS011;22982;42.848;25.468;2023-08-30T23:10:24;29.35;;;23.52;;
37067;SDS011;22982;42.848;25.468;2023-08-30T23:15:29;26.48;;;22.85;;
37067;SDS011;22982;42.848;25.468;2023-08-30T23:20:33;30.38;;;22.70;;
37067;SDS011;22982;42.848;25.468;2023-08-30T23:25:37;26.60;;;21.67;;
37067;SDS011;22982;42.848;25.468;2023-08-30T23:30:41;28.33;;;21.27;;
37067;SDS011;22982;42.848;25.468;2023-08-30T23:35:43;30.85;;;20.10;;
37067;SDS011;22982;42.848;25.468;2023-08-30T23:40:47;25.33;;;20.95;;
37067;SDS011;22982;42.848;25.468;2023-08-30T23:45:50;30.55;;;22.80;;
37067;SDS011;22982;42.848;25.468;2023-08-30T23:50:55;32.53;;;22.38;;
37067;SDS011;22982;42.848;25.468;2023-08-30T23:55:58;30.95;;;20.58;;
